sensor_id;sensor_type;location;lat;lon;timestamp;temperature;humidity
7606;DHT22;3844;53.360;9.738;2023-04-26T00:01:59;2.90;95.70
7606;DHT22;3844;53.360;9.738;2023-04-26T00:04:00;2.80;95.70
7606;DHT22;3844;53.360;9.738;2023-04-26T00:06:00;2.80;95.70
7606;DHT22;3844;53.360;9.738;2023-04-26T00:08:05;2.80;95.70
7606;DHT22;3844;53.360;9.738;2023-04-26T00:10:06;2.70;95.70
7606;DHT22;3844;53.360;9.738;2023-04-26T00:12:07;2.70;95.70
7606;DHT22;3844;53.360;9.738;2023-04-26T00:14:10;2.70;95.70
7606;DHT22;3844;53.360;9.738;2023-04-26T00:16:12;2.70;95.70
7606;DHT22;3844;53.360;9.738;2023-04-26T00:18:13;2.60;95.70
7606;DHT22;3844;53.360;9.738;2023-04-26T00:20:14;2.60;95.70
7606;DHT22;3844;53.360;9.738;2023-04-26T00:22:15;2.60;95.70
7606;DHT22;3844;53.360;9.738;2023-04-26T00:24:16;2.60;95.70
7606;DHT22;3844;53.360;9.738;2023-04-26T00:26:17;2.50;95.70
7606;DHT22;3844;53.360;9.738;2023-04-26T00:28:17;2.60;95.70
7606;DHT22;3844;53.360;9.738;2023-04-26T00:30:18;2.60;95.70
7606;DHT22;3844;53.360;9.738;2023-04-26T00:32:19;2.60;95.70
7606;DHT22;3844;53.360;9.738;2023-04-26T00:34:20;2.60;95.70
7606;DHT22;3844;53.360;9.738;2023-04-26T00:36:21;2.60;95.70
7606;DHT22;3844;53.360;9.738;2023-04-26T00:38:21;2.60;95.70
7606;DHT22;3844;53.360;9.738;2023-04-26T00:40:22;2.60;95.70
7606;DHT22;3844;53.360;9.738;2023-04-26T00:42:23;2.60;95.70
7606;DHT22;3844;53.360;9.738;2023-04-26T00:44:24;2.70;95.70
7606;DHT22;3844;53.360;9.738;2023-04-26T00:46:25;2.70;95.70
7606;DHT22;3844;53.360;9.738;2023-04-26T00:48:28;2.70;95.70
7606;DHT22;3844;53.360;9.738;2023-04-26T00:50:30;2.60;95.70
7606;DHT22;3844;53.360;9.738;2023-04-26T00:52:30;2.70;95.70
7606;DHT22;3844;53.360;9.738;2023-04-26T00:54:31;2.70;95.70
7606;DHT22;3844;53.360;9.738;2023-04-26T00:56:32;2.70;95.70
7606;DHT22;3844;53.360;9.738;2023-04-26T00:58:35;2.70;95.70
7606;DHT22;3844;53.360;9.738;2023-04-26T01:00:36;2.80;95.70
7606;DHT22;3844;53.360;9.738;2023-04-26T01:02:38;2.80;95.70
7606;DHT22;3844;53.360;9.738;2023-04-26T01:04:38;2.80;95.70
7606;DHT22;3844;53.360;9.738;2023-04-26T01:06:41;2.80;95.70
7606;DHT22;3844;53.360;9.738;2023-04-26T01:08:42;2.70;95.70
7606;DHT22;3844;53.360;9.738;2023-04-26T01:10:43;2.70;95.70
7606;DHT22;3844;53.360;9.738;2023-04-26T01:12:44;2.60;95.70
7606;DHT22;3844;53.360;9.738;2023-04-26T01:14:46;2.60;95.70
7606;DHT22;3844;53.360;9.738;2023-04-26T01:16:47;2.50;95.70
7606;DHT22;3844;53.360;9.738;2023-04-26T01:18:53;2.50;95.70
7606;DHT22;3844;53.360;9.738;2023-04-26T01:20:53;2.50;95.70
7606;DHT22;3844;53.360;9.738;2023-04-26T01:22:56;2.40;95.70
7606;DHT22;3844;53.360;9.738;2023-04-26T01:24:57;2.40;95.70
7606;DHT22;3844;53.360;9.738;2023-04-26T01:26:59;2.30;95.70
7606;DHT22;3844;53.360;9.738;2023-04-26T01:28:59;2.30;95.70
7606;DHT22;3844;53.360;9.738;2023-04-26T01:31:01;2.30;95.70
7606;DHT22;3844;53.360;9.738;2023-04-26T01:33:01;2.30;95.70
7606;DHT22;3844;53.360;9.738;2023-04-26T01:35:02;2.20;95.70
7606;DHT22;3844;53.360;9.738;2023-04-26T01:37:03;2.20;95.70
7606;DHT22;3844;53.360;9.738;2023-04-26T01:39:04;2.20;95.70
7606;DHT22;3844;53.360;9.738;2023-04-26T01:45:07;2.10;95.70
7606;DHT22;3844;53.360;9.738;2023-04-26T01:47:08;2.10;95.70
7606;DHT22;3844;53.360;9.738;2023-04-26T01:49:09;2.00;95.70
7606;DHT22;3844;53.360;9.738;2023-04-26T01:51:10;2.00;95.70
7606;DHT22;3844;53.360;9.738;2023-04-26T01:53:10;2.00;95.70
7606;DHT22;3844;53.360;9.738;2023-04-26T01:55:11;2.00;95.70
7606;DHT22;3844;53.360;9.738;2023-04-26T01:57:12;2.00;95.70
7606;DHT22;3844;53.360;9.738;2023-04-26T01:59:13;2.00;95.70
7606;DHT22;3844;53.360;9.738;2023-04-26T02:01:13;1.90;95.70
7606;DHT22;3844;53.360;9.738;2023-04-26T02:03:14;2.00;95.70
7606;DHT22;3844;53.360;9.738;2023-04-26T02:05:16;2.00;95.70
7606;DHT22;3844;53.360;9.738;2023-04-26T02:07:16;2.00;95.70
7606;DHT22;3844;53.360;9.738;2023-04-26T02:09:17;2.00;95.70
7606;DHT22;3844;53.360;9.738;2023-04-26T02:11:18;2.00;95.70
7606;DHT22;3844;53.360;9.738;2023-04-26T02:13:19;2.00;95.70
7606;DHT22;3844;53.360;9.738;2023-04-26T02:15:20;2.00;95.70
7606;DHT22;3844;53.360;9.738;2023-04-26T02:17:21;2.10;95.70
7606;DHT22;3844;53.360;9.738;2023-04-26T02:19:22;2.10;95.70
7606;DHT22;3844;53.360;9.738;2023-04-26T02:21:22;2.00;95.70
7606;DHT22;3844;53.360;9.738;2023-04-26T02:23:23;2.00;95.70
7606;DHT22;3844;53.360;9.738;2023-04-26T02:25:24;2.00;95.70
7606;DHT22;3844;53.360;9.738;2023-04-26T02:27:25;2.00;95.70
7606;DHT22;3844;53.360;9.738;2023-04-26T02:29:25;2.00;95.70
7606;DHT22;3844;53.360;9.738;2023-04-26T02:31:26;2.00;95.70
7606;DHT22;3844;53.360;9.738;2023-04-26T02:33:28;2.00;95.70
7606;DHT22;3844;53.360;9.738;2023-04-26T02:35:29;2.00;95.70
7606;DHT22;3844;53.360;9.738;2023-04-26T02:37:31;2.10;95.70
7606;DHT22;3844;53.360;9.738;2023-04-26T02:39:32;2.10;95.70
7606;DHT22;3844;53.360;9.738;2023-04-26T02:41:33;2.10;95.70
7606;DHT22;3844;53.360;9.738;2023-04-26T02:43:34;2.00;95.70
7606;DHT22;3844;53.360;9.738;2023-04-26T02:45:40;2.00;95.70
7606;DHT22;3844;53.360;9.738;2023-04-26T02:47:42;2.00;95.70
7606;DHT22;3844;53.360;9.738;2023-04-26T02:49:43;2.00;95.70
7606;DHT22;3844;53.360;9.738;2023-04-26T02:51:43;1.90;95.70
7606;DHT22;3844;53.360;9.738;2023-04-26T02:53:44;1.90;95.70
7606;DHT22;3844;53.360;9.738;2023-04-26T02:55:45;1.90;95.70
7606;DHT22;3844;53.360;9.738;2023-04-26T02:57:46;1.80;95.70
7606;DHT22;3844;53.360;9.738;2023-04-26T02:59:47;1.80;95.70
7606;DHT22;3844;53.360;9.738;2023-04-26T03:01:47;1.80;95.70
7606;DHT22;3844;53.360;9.738;2023-04-26T03:03:48;1.80;95.70
7606;DHT22;3844;53.360;9.738;2023-04-26T03:05:49;1.90;95.70
7606;DHT22;3844;53.360;9.738;2023-04-26T03:07:50;1.90;95.70
7606;DHT22;3844;53.360;9.738;2023-04-26T03:09:51;2.00;95.70
7606;DHT22;3844;53.360;9.738;2023-04-26T03:11:52;2.00;95.70
7606;DHT22;3844;53.360;9.738;2023-04-26T03:13:52;2.10;95.70
7606;DHT22;3844;53.360;9.738;2023-04-26T03:15:53;2.10;95.70
7606;DHT22;3844;53.360;9.738;2023-04-26T03:17:54;2.20;95.70
7606;DHT22;3844;53.360;9.738;2023-04-26T03:19:55;2.20;95.70
7606;DHT22;3844;53.360;9.738;2023-04-26T03:21:55;2.20;95.70
7606;DHT22;3844;53.360;9.738;2023-04-26T03:23:56;2.30;95.70
7606;DHT22;3844;53.360;9.738;2023-04-26T03:25:57;2.30;95.70
7606;DHT22;3844;53.360;9.738;2023-04-26T03:27:58;2.40;95.70
7606;DHT22;3844;53.360;9.738;2023-04-26T03:29:59;2.40;95.70
7606;DHT22;3844;53.360;9.738;2023-04-26T03:31:59;2.50;95.70
7606;DHT22;3844;53.360;9.738;2023-04-26T03:34:00;2.50;95.70
7606;DHT22;3844;53.360;9.738;2023-04-26T03:36:01;2.60;95.70
7606;DHT22;3844;53.360;9.738;2023-04-26T03:38:02;2.60;95.70
7606;DHT22;3844;53.360;9.738;2023-04-26T03:40:03;2.60;95.70
7606;DHT22;3844;53.360;9.738;2023-04-26T03:42:05;2.60;95.70
7606;DHT22;3844;53.360;9.738;2023-04-26T03:44:06;2.60;95.70
7606;DHT22;3844;53.360;9.738;2023-04-26T03:46:07;2.60;95.70
7606;DHT22;3844;53.360;9.738;2023-04-26T03:48:07;2.50;95.70
7606;DHT22;3844;53.360;9.738;2023-04-26T03:50:08;2.50;95.70
7606;DHT22;3844;53.360;9.738;2023-04-26T03:52:09;2.50;95.70
7606;DHT22;3844;53.360;9.738;2023-04-26T03:54:10;2.40;95.70
7606;DHT22;3844;53.360;9.738;2023-04-26T03:56:11;2.30;95.70
7606;DHT22;3844;53.360;9.738;2023-04-26T03:58:11;2.30;95.70
7606;DHT22;3844;53.360;9.738;2023-04-26T04:00:13;2.20;95.70
7606;DHT22;3844;53.360;9.738;2023-04-26T04:02:14;2.20;95.70
7606;DHT22;3844;53.360;9.738;2023-04-26T04:04:15;2.20;95.70
7606;DHT22;3844;53.360;9.738;2023-04-26T04:06:16;2.10;95.70
7606;DHT22;3844;53.360;9.738;2023-04-26T04:08:17;2.10;95.70
7606;DHT22;3844;53.360;9.738;2023-04-26T04:10:17;2.10;95.70
7606;DHT22;3844;53.360;9.738;2023-04-26T04:12:18;2.00;95.70
7606;DHT22;3844;53.360;9.738;2023-04-26T04:14:19;2.00;95.70
7606;DHT22;3844;53.360;9.738;2023-04-26T04:16:20;2.10;95.70
7606;DHT22;3844;53.360;9.738;2023-04-26T04:18:21;2.10;95.70
7606;DHT22;3844;53.360;9.738;2023-04-26T04:20:21;2.10;95.70
7606;DHT22;3844;53.360;9.738;2023-04-26T04:22:23;2.10;95.70
7606;DHT22;3844;53.360;9.738;2023-04-26T04:24:23;2.10;95.70
7606;DHT22;3844;53.360;9.738;2023-04-26T04:26:25;2.20;95.70
7606;DHT22;3844;53.360;9.738;2023-04-26T04:30:29;2.20;95.70
7606;DHT22;3844;53.360;9.738;2023-04-26T04:32:30;2.20;95.70
7606;DHT22;3844;53.360;9.738;2023-04-26T04:34:35;2.30;95.70
7606;DHT22;3844;53.360;9.738;2023-04-26T04:36:36;2.40;95.70
7606;DHT22;3844;53.360;9.738;2023-04-26T04:38:38;2.60;95.70
7606;DHT22;3844;53.360;9.738;2023-04-26T04:40:39;2.70;95.70
7606;DHT22;3844;53.360;9.738;2023-04-26T04:42:39;2.80;95.70
7606;DHT22;3844;53.360;9.738;2023-04-26T04:44:40;2.90;95.70
7606;DHT22;3844;53.360;9.738;2023-04-26T04:46:43;2.90;95.70
7606;DHT22;3844;53.360;9.738;2023-04-26T04:48:43;2.90;95.70
7606;DHT22;3844;53.360;9.738;2023-04-26T04:50:44;3.00;95.70
7606;DHT22;3844;53.360;9.738;2023-04-26T04:52:45;3.10;95.70
7606;DHT22;3844;53.360;9.738;2023-04-26T04:54:46;3.20;95.70
7606;DHT22;3844;53.360;9.738;2023-04-26T04:56:47;3.30;95.70
7606;DHT22;3844;53.360;9.738;2023-04-26T04:58:47;3.40;95.70
7606;DHT22;3844;53.360;9.738;2023-04-26T05:00:48;3.50;95.70
7606;DHT22;3844;53.360;9.738;2023-04-26T05:02:50;3.60;95.70
7606;DHT22;3844;53.360;9.738;2023-04-26T05:04:50;3.80;95.70
7606;DHT22;3844;53.360;9.738;2023-04-26T05:06:51;3.90;95.70
7606;DHT22;3844;53.360;9.738;2023-04-26T05:08:53;4.00;95.70
7606;DHT22;3844;53.360;9.738;2023-04-26T05:10:54;4.10;95.70
7606;DHT22;3844;53.360;9.738;2023-04-26T05:12:56;4.10;95.70
7606;DHT22;3844;53.360;9.738;2023-04-26T05:14:57;4.10;95.70
7606;DHT22;3844;53.360;9.738;2023-04-26T05:16:58;4.00;95.70
7606;DHT22;3844;53.360;9.738;2023-04-26T05:18:58;4.00;95.70
7606;DHT22;3844;53.360;9.738;2023-04-26T05:20:59;4.10;95.70
7606;DHT22;3844;53.360;9.738;2023-04-26T05:23:00;4.30;95.70
7606;DHT22;3844;53.360;9.738;2023-04-26T05:25:01;4.40;95.70
7606;DHT22;3844;53.360;9.738;2023-04-26T05:27:04;4.50;95.70
7606;DHT22;3844;53.360;9.738;2023-04-26T05:29:04;4.70;95.70
7606;DHT22;3844;53.360;9.738;2023-04-26T05:31:05;4.90;95.70
7606;DHT22;3844;53.360;9.738;2023-04-26T05:33:06;5.00;95.70
7606;DHT22;3844;53.360;9.738;2023-04-26T05:35:07;5.20;95.70
7606;DHT22;3844;53.360;9.738;2023-04-26T05:37:08;5.20;94.20
7606;DHT22;3844;53.360;9.738;2023-04-26T05:39:09;5.20;93.60
7606;DHT22;3844;53.360;9.738;2023-04-26T05:41:10;5.30;93.70
7606;DHT22;3844;53.360;9.738;2023-04-26T05:43:10;5.40;92.90
7606;DHT22;3844;53.360;9.738;2023-04-26T05:45:12;5.60;93.90
7606;DHT22;3844;53.360;9.738;2023-04-26T05:47:12;5.80;94.00
7606;DHT22;3844;53.360;9.738;2023-04-26T05:49:13;5.90;91.90
7606;DHT22;3844;53.360;9.738;2023-04-26T05:51:14;6.20;92.50
7606;DHT22;3844;53.360;9.738;2023-04-26T05:53:16;6.40;91.50
7606;DHT22;3844;53.360;9.738;2023-04-26T05:55:17;6.60;90.30
7606;DHT22;3844;53.360;9.738;2023-04-26T05:57:19;6.70;89.00
7606;DHT22;3844;53.360;9.738;2023-04-26T05:59:20;6.80;88.30
7606;DHT22;3844;53.360;9.738;2023-04-26T06:01:20;6.90;87.70
7606;DHT22;3844;53.360;9.738;2023-04-26T06:03:21;7.10;88.40
7606;DHT22;3844;53.360;9.738;2023-04-26T06:05:22;7.30;88.10
7606;DHT22;3844;53.360;9.738;2023-04-26T06:07:23;7.50;86.50
7606;DHT22;3844;53.360;9.738;2023-04-26T06:09:24;7.60;85.30
7606;DHT22;3844;53.360;9.738;2023-04-26T06:11:26;7.70;84.60
7606;DHT22;3844;53.360;9.738;2023-04-26T06:13:27;7.90;85.60
7606;DHT22;3844;53.360;9.738;2023-04-26T06:17:29;8.10;83.60
7606;DHT22;3844;53.360;9.738;2023-04-26T06:19:30;8.30;84.80
7606;DHT22;3844;53.360;9.738;2023-04-26T06:21:30;8.30;84.80
7606;DHT22;3844;53.360;9.738;2023-04-26T06:23:31;8.40;82.10
7606;DHT22;3844;53.360;9.738;2023-04-26T06:25:32;8.60;82.80
7606;DHT22;3844;53.360;9.738;2023-04-26T06:27:33;8.70;81.20
7606;DHT22;3844;53.360;9.738;2023-04-26T06:29:34;9.00;82.00
7606;DHT22;3844;53.360;9.738;2023-04-26T06:31:35;9.30;80.20
7606;DHT22;3844;53.360;9.738;2023-04-26T06:33:35;9.50;80.20
7606;DHT22;3844;53.360;9.738;2023-04-26T06:35:40;9.20;76.80
7606;DHT22;3844;53.360;9.738;2023-04-26T06:37:40;8.70;79.30
7606;DHT22;3844;53.360;9.738;2023-04-26T06:39:41;8.20;80.70
7606;DHT22;3844;53.360;9.738;2023-04-26T06:41:42;7.80;81.40
7606;DHT22;3844;53.360;9.738;2023-04-26T06:43:43;7.50;82.20
7606;DHT22;3844;53.360;9.738;2023-04-26T06:45:43;7.40;83.30
7606;DHT22;3844;53.360;9.738;2023-04-26T06:47:44;7.60;84.70
7606;DHT22;3844;53.360;9.738;2023-04-26T06:49:45;8.00;82.90
7606;DHT22;3844;53.360;9.738;2023-04-26T06:51:45;8.40;80.90
7606;DHT22;3844;53.360;9.738;2023-04-26T06:53:47;8.60;80.80
7606;DHT22;3844;53.360;9.738;2023-04-26T06:55:47;9.20;80.20
7606;DHT22;3844;53.360;9.738;2023-04-26T06:57:49;9.60;76.60
7606;DHT22;3844;53.360;9.738;2023-04-26T06:59:50;9.90;75.80
7606;DHT22;3844;53.360;9.738;2023-04-26T07:01:52;10.00;74.00
7606;DHT22;3844;53.360;9.738;2023-04-26T07:03:56;10.00;75.10
7606;DHT22;3844;53.360;9.738;2023-04-26T07:05:57;10.30;74.50
7606;DHT22;3844;53.360;9.738;2023-04-26T07:07:58;10.40;73.70
7606;DHT22;3844;53.360;9.738;2023-04-26T07:09:59;10.10;73.00
7606;DHT22;3844;53.360;9.738;2023-04-26T07:11:59;9.80;75.90
7606;DHT22;3844;53.360;9.738;2023-04-26T07:14:00;9.60;75.90
7606;DHT22;3844;53.360;9.738;2023-04-26T07:16:01;9.50;77.40
7606;DHT22;3844;53.360;9.738;2023-04-26T07:18:02;9.30;77.30
7606;DHT22;3844;53.360;9.738;2023-04-26T07:20:03;9.10;77.00
7606;DHT22;3844;53.360;9.738;2023-04-26T07:22:04;8.90;76.90
7606;DHT22;3844;53.360;9.738;2023-04-26T07:24:05;8.90;78.20
7606;DHT22;3844;53.360;9.738;2023-04-26T07:26:10;8.90;78.10
7606;DHT22;3844;53.360;9.738;2023-04-26T07:28:11;8.80;77.30
7606;DHT22;3844;53.360;9.738;2023-04-26T07:30:12;8.80;77.30
7606;DHT22;3844;53.360;9.738;2023-04-26T07:32:13;8.80;77.70
7606;DHT22;3844;53.360;9.738;2023-04-26T07:34:14;8.80;78.30
7606;DHT22;3844;53.360;9.738;2023-04-26T07:36:15;9.10;79.20
7606;DHT22;3844;53.360;9.738;2023-04-26T07:40:19;9.50;77.00
7606;DHT22;3844;53.360;9.738;2023-04-26T07:42:22;9.60;76.00
7606;DHT22;3844;53.360;9.738;2023-04-26T07:44:22;9.40;76.40
7606;DHT22;3844;53.360;9.738;2023-04-26T07:46:23;9.50;76.50
7606;DHT22;3844;53.360;9.738;2023-04-26T07:48:24;9.80;77.60
7606;DHT22;3844;53.360;9.738;2023-04-26T07:50:25;10.20;76.50
7606;DHT22;3844;53.360;9.738;2023-04-26T07:52:26;10.60;74.00
7606;DHT22;3844;53.360;9.738;2023-04-26T07:54:26;11.00;73.90
7606;DHT22;3844;53.360;9.738;2023-04-26T07:56:28;11.40;72.60
7606;DHT22;3844;53.360;9.738;2023-04-26T07:58:28;11.60;70.00
7606;DHT22;3844;53.360;9.738;2023-04-26T08:00:29;11.80;69.20
7606;DHT22;3844;53.360;9.738;2023-04-26T08:02:30;12.10;69.20
7606;DHT22;3844;53.360;9.738;2023-04-26T08:04:32;12.10;66.60
7606;DHT22;3844;53.360;9.738;2023-04-26T08:06:33;11.90;67.40
7606;DHT22;3844;53.360;9.738;2023-04-26T08:08:34;11.50;67.80
7606;DHT22;3844;53.360;9.738;2023-04-26T08:10:42;11.50;70.30
7606;DHT22;3844;53.360;9.738;2023-04-26T08:12:43;11.80;68.00
7606;DHT22;3844;53.360;9.738;2023-04-26T08:14:43;12.30;68.70
7606;DHT22;3844;53.360;9.738;2023-04-26T08:16:44;12.30;66.30
7606;DHT22;3844;53.360;9.738;2023-04-26T08:18:45;12.10;68.70
7606;DHT22;3844;53.360;9.738;2023-04-26T08:20:46;12.20;68.70
7606;DHT22;3844;53.360;9.738;2023-04-26T08:22:46;12.30;68.60
7606;DHT22;3844;53.360;9.738;2023-04-26T08:24:53;12.40;68.30
7606;DHT22;3844;53.360;9.738;2023-04-26T08:26:54;12.60;66.20
7606;DHT22;3844;53.360;9.738;2023-04-26T08:28:56;12.10;66.30
7606;DHT22;3844;53.360;9.738;2023-04-26T08:30:57;11.70;67.10
7606;DHT22;3844;53.360;9.738;2023-04-26T08:32:57;11.10;69.60
7606;DHT22;3844;53.360;9.738;2023-04-26T08:34:58;10.60;69.50
7606;DHT22;3844;53.360;9.738;2023-04-26T08:36:59;10.40;71.40
7606;DHT22;3844;53.360;9.738;2023-04-26T08:39:00;10.20;71.80
7606;DHT22;3844;53.360;9.738;2023-04-26T08:41:01;10.10;72.50
7606;DHT22;3844;53.360;9.738;2023-04-26T08:43:03;10.00;72.20
7606;DHT22;3844;53.360;9.738;2023-04-26T08:45:05;9.90;72.10
7606;DHT22;3844;53.360;9.738;2023-04-26T08:48:09;9.70;73.60
7606;DHT22;3844;53.360;9.738;2023-04-26T08:49:53;9.10;74.90
7606;DHT22;3844;53.360;9.738;2023-04-26T08:51:59;8.70;78.60
7606;DHT22;3844;53.360;9.738;2023-04-26T08:54:00;8.50;80.80
7606;DHT22;3844;53.360;9.738;2023-04-26T08:56:03;8.50;81.30
7606;DHT22;3844;53.360;9.738;2023-04-26T08:58:05;8.70;82.30
7606;DHT22;3844;53.360;9.738;2023-04-26T09:00:07;8.80;81.60
7606;DHT22;3844;53.360;9.738;2023-04-26T09:02:20;9.20;81.60
7606;DHT22;3844;53.360;9.738;2023-04-26T09:04:21;9.50;78.00
7606;DHT22;3844;53.360;9.738;2023-04-26T09:06:22;9.60;76.60
7606;DHT22;3844;53.360;9.738;2023-04-26T09:08:24;9.70;75.30
7606;DHT22;3844;53.360;9.738;2023-04-26T09:10:27;9.90;75.90
7606;DHT22;3844;53.360;9.738;2023-04-26T09:12:28;10.10;74.10
7606;DHT22;3844;53.360;9.738;2023-04-26T09:14:33;10.10;72.40
7606;DHT22;3844;53.360;9.738;2023-04-26T09:16:35;9.90;72.20
7606;DHT22;3844;53.360;9.738;2023-04-26T09:18:48;10.00;73.60
7606;DHT22;3844;53.360;9.738;2023-04-26T09:21:06;10.50;70.50
7606;DHT22;3844;53.360;9.738;2023-04-26T09:23:09;11.00;72.20
7606;DHT22;3844;53.360;9.738;2023-04-26T09:25:10;11.90;71.70
7606;DHT22;3844;53.360;9.738;2023-04-26T09:27:13;12.80;66.40
7606;DHT22;3844;53.360;9.738;2023-04-26T09:29:17;13.00;64.20
7606;DHT22;3844;53.360;9.738;2023-04-26T09:31:39;13.10;66.60
7606;DHT22;3844;53.360;9.738;2023-04-26T09:33:57;13.60;64.90
7606;DHT22;3844;53.360;9.738;2023-04-26T09:36:11;13.60;64.50
7606;DHT22;3844;53.360;9.738;2023-04-26T09:38:14;13.40;66.60
7606;DHT22;3844;53.360;9.738;2023-04-26T09:40:21;13.30;65.90
7606;DHT22;3844;53.360;9.738;2023-04-26T09:42:22;13.40;65.60
7606;DHT22;3844;53.360;9.738;2023-04-26T09:44:24;13.00;66.30
7606;DHT22;3844;53.360;9.738;2023-04-26T09:46:25;12.80;66.60
7606;DHT22;3844;53.360;9.738;2023-04-26T09:48:33;12.40;67.90
7606;DHT22;3844;53.360;9.738;2023-04-26T09:50:34;12.10;68.50
7606;DHT22;3844;53.360;9.738;2023-04-26T09:52:44;11.70;68.30
7606;DHT22;3844;53.360;9.738;2023-04-26T09:54:49;11.50;70.40
7606;DHT22;3844;53.360;9.738;2023-04-26T09:57:00;11.50;68.70
7606;DHT22;3844;53.360;9.738;2023-04-26T09:59:01;11.60;69.90
7606;DHT22;3844;53.360;9.738;2023-04-26T10:01:05;11.90;68.40
7606;DHT22;3844;53.360;9.738;2023-04-26T10:03:07;12.20;67.50
7606;DHT22;3844;53.360;9.738;2023-04-26T10:05:13;12.80;66.50
7606;DHT22;3844;53.360;9.738;2023-04-26T10:07:17;13.00;64.00
7606;DHT22;3844;53.360;9.738;2023-04-26T10:09:18;13.10;66.80
7606;DHT22;3844;53.360;9.738;2023-04-26T10:11:20;13.70;65.70
7606;DHT22;3844;53.360;9.738;2023-04-26T10:13:21;14.40;62.90
7606;DHT22;3844;53.360;9.738;2023-04-26T10:15:22;14.80;62.20
7606;DHT22;3844;53.360;9.738;2023-04-26T10:17:23;15.40;60.70
7606;DHT22;3844;53.360;9.738;2023-04-26T10:19:24;15.70;60.40
7606;DHT22;3844;53.360;9.738;2023-04-26T10:21:29;16.20;61.70
7606;DHT22;3844;53.360;9.738;2023-04-26T10:23:31;16.70;57.30
7606;DHT22;3844;53.360;9.738;2023-04-26T10:26:05;16.60;56.70
7606;DHT22;3844;53.360;9.738;2023-04-26T10:28:06;16.10;59.70
7606;DHT22;3844;53.360;9.738;2023-04-26T10:30:08;15.40;58.40
7606;DHT22;3844;53.360;9.738;2023-04-26T10:32:09;14.80;61.30
7606;DHT22;3844;53.360;9.738;2023-04-26T10:34:20;14.40;60.70
7606;DHT22;3844;53.360;9.738;2023-04-26T10:36:21;13.80;63.40
7606;DHT22;3844;53.360;9.738;2023-04-26T10:38:22;13.40;62.90
7606;DHT22;3844;53.360;9.738;2023-04-26T10:40:24;13.10;64.60
7606;DHT22;3844;53.360;9.738;2023-04-26T10:42:27;13.10;66.20
7606;DHT22;3844;53.360;9.738;2023-04-26T10:44:38;13.20;65.10
7606;DHT22;3844;53.360;9.738;2023-04-26T10:46:40;13.30;66.00
7606;DHT22;3844;53.360;9.738;2023-04-26T10:48:42;13.40;66.80
7606;DHT22;3844;53.360;9.738;2023-04-26T10:53:04;13.80;65.90
7606;DHT22;3844;53.360;9.738;2023-04-26T10:55:10;14.30;64.50
7606;DHT22;3844;53.360;9.738;2023-04-26T10:57:12;14.90;62.00
7606;DHT22;3844;53.360;9.738;2023-04-26T10:59:18;15.60;60.10
7606;DHT22;3844;53.360;9.738;2023-04-26T11:01:19;16.30;58.80
7606;DHT22;3844;53.360;9.738;2023-04-26T11:03:22;16.30;58.80
7606;DHT22;3844;53.360;9.738;2023-04-26T11:07:36;15.80;59.30
7606;DHT22;3844;53.360;9.738;2023-04-26T11:09:47;15.80;59.90
7606;DHT22;3844;53.360;9.738;2023-04-26T11:11:51;15.90;59.40
7606;DHT22;3844;53.360;9.738;2023-04-26T11:13:55;16.30;58.70
7606;DHT22;3844;53.360;9.738;2023-04-26T11:16:04;16.70;59.20
7606;DHT22;3844;53.360;9.738;2023-04-26T11:18:05;16.80;55.50
7606;DHT22;3844;53.360;9.738;2023-04-26T11:20:09;16.20;54.00
7606;DHT22;3844;53.360;9.738;2023-04-26T11:22:15;15.80;55.90
7606;DHT22;3844;53.360;9.738;2023-04-26T11:24:16;15.60;54.40
7606;DHT22;3844;53.360;9.738;2023-04-26T11:26:17;15.00;54.90
7606;DHT22;3844;53.360;9.738;2023-04-26T11:28:18;14.00;57.50
7606;DHT22;3844;53.360;9.738;2023-04-26T11:30:19;13.40;60.40
7606;DHT22;3844;53.360;9.738;2023-04-26T11:32:20;13.10;62.00
7606;DHT22;3844;53.360;9.738;2023-04-26T11:34:37;12.90;61.90
7606;DHT22;3844;53.360;9.738;2023-04-26T11:36:38;12.90;63.50
7606;DHT22;3844;53.360;9.738;2023-04-26T11:40:41;14.20;62.00
7606;DHT22;3844;53.360;9.738;2023-04-26T11:42:45;15.10;62.30
7606;DHT22;3844;53.360;9.738;2023-04-26T11:44:46;15.70;59.50
7606;DHT22;3844;53.360;9.738;2023-04-26T11:46:51;15.50;57.20
7606;DHT22;3844;53.360;9.738;2023-04-26T11:48:52;14.70;58.20
7606;DHT22;3844;53.360;9.738;2023-04-26T11:50:53;13.60;63.20
7606;DHT22;3844;53.360;9.738;2023-04-26T11:52:58;12.90;64.70
7606;DHT22;3844;53.360;9.738;2023-04-26T11:55:07;12.30;66.90
7606;DHT22;3844;53.360;9.738;2023-04-26T11:57:14;11.90;66.70
7606;DHT22;3844;53.360;9.738;2023-04-26T11:59:26;11.50;68.70
7606;DHT22;3844;53.360;9.738;2023-04-26T12:01:29;11.20;68.80
7606;DHT22;3844;53.360;9.738;2023-04-26T12:03:31;11.00;67.30
7606;DHT22;3844;53.360;9.738;2023-04-26T12:05:34;10.90;70.40
7606;DHT22;3844;53.360;9.738;2023-04-26T12:07:36;10.80;68.60
7606;DHT22;3844;53.360;9.738;2023-04-26T12:09:40;10.80;69.90
7606;DHT22;3844;53.360;9.738;2023-04-26T12:11:47;10.80;68.10
7606;DHT22;3844;53.360;9.738;2023-04-26T12:13:50;10.80;69.20
7606;DHT22;3844;53.360;9.738;2023-04-26T12:15:51;10.90;68.50
7606;DHT22;3844;53.360;9.738;2023-04-26T12:18:10;10.90;68.20
7606;DHT22;3844;53.360;9.738;2023-04-26T12:20:12;11.20;68.50
7606;DHT22;3844;53.360;9.738;2023-04-26T12:22:19;11.60;70.20
7606;DHT22;3844;53.360;9.738;2023-04-26T12:24:23;12.50;67.80
7606;DHT22;3844;53.360;9.738;2023-04-26T12:26:40;13.10;61.60
7606;DHT22;3844;53.360;9.738;2023-04-26T12:28:42;13.20;61.10
7606;DHT22;3844;53.360;9.738;2023-04-26T12:30:43;13.20;61.90
7606;DHT22;3844;53.360;9.738;2023-04-26T12:32:43;13.20;60.20
7606;DHT22;3844;53.360;9.738;2023-04-26T12:34:44;13.20;62.00
7606;DHT22;3844;53.360;9.738;2023-04-26T12:36:45;13.20;61.40
7606;DHT22;3844;53.360;9.738;2023-04-26T12:38:48;12.90;61.40
7606;DHT22;3844;53.360;9.738;2023-04-26T12:42:51;12.50;60.80
7606;DHT22;3844;53.360;9.738;2023-04-26T12:44:52;12.10;61.80
7606;DHT22;3844;53.360;9.738;2023-04-26T12:46:52;11.80;61.50
7606;DHT22;3844;53.360;9.738;2023-04-26T12:48:53;11.50;62.30
7606;DHT22;3844;53.360;9.738;2023-04-26T12:50:54;11.20;63.70
7606;DHT22;3844;53.360;9.738;2023-04-26T12:54:56;11.40;65.10
7606;DHT22;3844;53.360;9.738;2023-04-26T12:56:57;11.60;65.20
7606;DHT22;3844;53.360;9.738;2023-04-26T13:00:59;11.70;64.50
7606;DHT22;3844;53.360;9.738;2023-04-26T13:03:00;11.80;64.30
7606;DHT22;3844;53.360;9.738;2023-04-26T13:05:01;11.70;65.00
7606;DHT22;3844;53.360;9.738;2023-04-26T13:07:04;11.70;63.00
7606;DHT22;3844;53.360;9.738;2023-04-26T13:09:05;11.60;62.60
7606;DHT22;3844;53.360;9.738;2023-04-26T13:11:07;11.60;61.10
7606;DHT22;3844;53.360;9.738;2023-04-26T13:13:08;11.50;60.80
7606;DHT22;3844;53.360;9.738;2023-04-26T13:15:09;11.70;62.80
7606;DHT22;3844;53.360;9.738;2023-04-26T13:17:10;12.30;63.50
7606;DHT22;3844;53.360;9.738;2023-04-26T13:19:11;13.00;61.30
7606;DHT22;3844;53.360;9.738;2023-04-26T13:21:12;13.80;59.30
7606;DHT22;3844;53.360;9.738;2023-04-26T13:23:13;14.10;56.80
7606;DHT22;3844;53.360;9.738;2023-04-26T13:25:14;14.40;54.70
7606;DHT22;3844;53.360;9.738;2023-04-26T13:27:17;14.20;53.70
7606;DHT22;3844;53.360;9.738;2023-04-26T13:29:18;13.80;56.50
7606;DHT22;3844;53.360;9.738;2023-04-26T13:31:19;13.70;56.20
7606;DHT22;3844;53.360;9.738;2023-04-26T13:33:20;13.40;56.70
7606;DHT22;3844;53.360;9.738;2023-04-26T13:35:21;13.20;56.90
7606;DHT22;3844;53.360;9.738;2023-04-26T13:37:22;12.90;57.50
7606;DHT22;3844;53.360;9.738;2023-04-26T13:39:24;12.80;58.80
7606;DHT22;3844;53.360;9.738;2023-04-26T13:41:25;12.80;58.00
7606;DHT22;3844;53.360;9.738;2023-04-26T13:45:27;12.90;57.00
7606;DHT22;3844;53.360;9.738;2023-04-26T13:47:28;13.10;57.20
7606;DHT22;3844;53.360;9.738;2023-04-26T13:49:28;13.30;57.40
7606;DHT22;3844;53.360;9.738;2023-04-26T13:51:29;13.30;57.10